sensor_id;sensor_type;location;lat;lon;timestamp;P1;durP1;ratioP1;P2;durP2;ratioP2
10387;SDS011;5240;51.128;4.566;2022-10-29T00:00:47;15.88;;;9.18;;
10387;SDS011;5240;51.128;4.566;2022-10-29T00:03:15;18.67;;;9.57;;
10387;SDS011;5240;51.128;4.566;2022-10-29T00:05:42;17.15;;;9.70;;
10387;SDS011;5240;51.128;4.566;2022-10-29T00:08:09;18.58;;;9.63;;
10387;SDS011;5240;51.128;4.566;2022-10-29T00:10:36;18.63;;;9.80;;
10387;SDS011;5240;51.128;4.566;2022-10-29T00:13:02;17.17;;;8.77;;
10387;SDS011;5240;51.128;4.566;2022-10-29T00:15:31;15.85;;;9.13;;
10387;SDS011;5240;51.128;4.566;2022-10-29T00:17:58;18.15;;;9.52;;
10387;SDS011;5240;51.128;4.566;2022-10-29T00:20:25;15.60;;;9.05;;
10387;SDS011;5240;51.128;4.566;2022-10-29T00:22:52;21.02;;;9.68;;
10387;SDS011;5240;51.128;4.566;2022-10-29T00:25:20;15.80;;;9.00;;
10387;SDS011;5240;51.128;4.566;2022-10-29T00:27:47;19.27;;;9.05;;
10387;SDS011;5240;51.128;4.566;2022-10-29T00:30:13;18.35;;;9.75;;
10387;SDS011;5240;51.128;4.566;2022-10-29T00:32:42;19.70;;;9.55;;
10387;SDS011;5240;51.128;4.566;2022-10-29T00:35:09;21.73;;;9.60;;
10387;SDS011;5240;51.128;4.566;2022-10-29T00:37:36;21.48;;;9.35;;
10387;SDS011;5240;51.128;4.566;2022-10-29T00:40:05;17.52;;;8.57;;
10387;SDS011;5240;51.128;4.566;2022-10-29T00:42:33;14.13;;;8.80;;
10387;SDS011;5240;51.128;4.566;2022-10-29T00:45:00;15.35;;;8.82;;
10387;SDS011;5240;51.128;4.566;2022-10-29T00:47:27;15.52;;;8.43;;
10387;SDS011;5240;51.128;4.566;2022-10-29T00:49:58;18.17;;;8.40;;
10387;SDS011;5240;51.128;4.566;2022-10-29T00:52:28;19.50;;;10.10;;
10387;SDS011;5240;51.128;4.566;2022-10-29T00:54:57;20.85;;;10.07;;
10387;SDS011;5240;51.128;4.566;2022-10-29T00:57:28;18.52;;;10.25;;
10387;SDS011;5240;51.128;4.566;2022-10-29T00:59:59;16.88;;;10.50;;
10387;SDS011;5240;51.128;4.566;2022-10-29T01:02:27;16.77;;;9.25;;
10387;SDS011;5240;51.128;4.566;2022-10-29T01:04:57;16.52;;;9.00;;
10387;SDS011;5240;51.128;4.566;2022-10-29T01:07:27;22.65;;;9.93;;
10387;SDS011;5240;51.128;4.566;2022-10-29T01:09:54;17.63;;;9.77;;
10387;SDS011;5240;51.128;4.566;2022-10-29T01:12:39;17.67;;;10.40;;
10387;SDS011;5240;51.128;4.566;2022-10-29T01:15:28;17.60;;;10.05;;
10387;SDS011;5240;51.128;4.566;2022-10-29T01:18:07;18.10;;;10.18;;
10387;SDS011;5240;51.128;4.566;2022-10-29T01:21:06;17.45;;;10.02;;
10387;SDS011;5240;51.128;4.566;2022-10-29T01:24:11;22.30;;;10.15;;
10387;SDS011;5240;51.128;4.566;2022-10-29T01:30:00;14.80;;;9.75;;
10387;SDS011;5240;51.128;4.566;2022-10-29T01:32:35;15.20;;;10.20;;
10387;SDS011;5240;51.128;4.566;2022-10-29T01:35:14;19.25;;;10.15;;
10387;SDS011;5240;51.128;4.566;2022-10-29T01:37:45;17.00;;;10.57;;
10387;SDS011;5240;51.128;4.566;2022-10-29T01:40:22;16.17;;;9.85;;
10387;SDS011;5240;51.128;4.566;2022-10-29T01:42:52;17.13;;;10.27;;
10387;SDS011;5240;51.128;4.566;2022-10-29T01:45:24;25.58;;;14.88;;
10387;SDS011;5240;51.128;4.566;2022-10-29T01:47:58;16.13;;;10.05;;
10387;SDS011;5240;51.128;4.566;2022-10-29T01:50:29;18.85;;;10.05;;
10387;SDS011;5240;51.128;4.566;2022-10-29T01:52:59;16.73;;;10.40;;
10387;SDS011;5240;51.128;4.566;2022-10-29T01:55:29;17.95;;;10.02;;
10387;SDS011;5240;51.128;4.566;2022-10-29T01:57:59;13.88;;;9.52;;
10387;SDS011;5240;51.128;4.566;2022-10-29T02:00:26;17.23;;;9.82;;
10387;SDS011;5240;51.128;4.566;2022-10-29T02:03:10;18.15;;;9.60;;
10387;SDS011;5240;51.128;4.566;2022-10-29T02:05:47;15.25;;;9.35;;
10387;SDS011;5240;51.128;4.566;2022-10-29T02:08:23;18.15;;;10.35;;
10387;SDS011;5240;51.128;4.566;2022-10-29T02:10:58;25.63;;;10.75;;
10387;SDS011;5240;51.128;4.566;2022-10-29T02:13:29;17.83;;;9.60;;
10387;SDS011;5240;51.128;4.566;2022-10-29T02:15:58;17.33;;;10.10;;
10387;SDS011;5240;51.128;4.566;2022-10-29T02:18:29;19.75;;;10.30;;
10387;SDS011;5240;51.128;4.566;2022-10-29T02:20:56;16.70;;;10.52;;
10387;SDS011;5240;51.128;4.566;2022-10-29T02:23:23;20.40;;;10.40;;
10387;SDS011;5240;51.128;4.566;2022-10-29T02:25:50;19.15;;;10.27;;
10387;SDS011;5240;51.128;4.566;2022-10-29T02:28:16;23.52;;;10.85;;
10387;SDS011;5240;51.128;4.566;2022-10-29T02:30:43;18.90;;;10.02;;
10387;SDS011;5240;51.128;4.566;2022-10-29T02:33:10;19.45;;;10.70;;
10387;SDS011;5240;51.128;4.566;2022-10-29T02:35:39;17.77;;;11.10;;
10387;SDS011;5240;51.128;4.566;2022-10-29T02:38:06;22.70;;;10.57;;
10387;SDS011;5240;51.128;4.566;2022-10-29T02:40:32;17.98;;;9.93;;
10387;SDS011;5240;51.128;4.566;2022-10-29T02:42:59;16.08;;;10.27;;
10387;SDS011;5240;51.128;4.566;2022-10-29T02:45:26;17.90;;;10.43;;
10387;SDS011;5240;51.128;4.566;2022-10-29T02:47:53;22.13;;;10.82;;
10387;SDS011;5240;51.128;4.566;2022-10-29T02:50:20;16.42;;;10.95;;
10387;SDS011;5240;51.128;4.566;2022-10-29T02:52:49;18.08;;;10.35;;
10387;SDS011;5240;51.128;4.566;2022-10-29T02:55:16;25.58;;;11.48;;
10387;SDS011;5240;51.128;4.566;2022-10-29T02:57:43;19.95;;;10.68;;
10387;SDS011;5240;51.128;4.566;2022-10-29T03:00:11;15.15;;;9.40;;
10387;SDS011;5240;51.128;4.566;2022-10-29T03:02:38;17.17;;;10.52;;
10387;SDS011;5240;51.128;4.566;2022-10-29T03:05:06;21.30;;;10.07;;
10387;SDS011;5240;51.128;4.566;2022-10-29T03:07:34;18.52;;;10.68;;
10387;SDS011;5240;51.128;4.566;2022-10-29T03:10:03;18.48;;;10.32;;
10387;SDS011;5240;51.128;4.566;2022-10-29T03:12:31;18.98;;;11.68;;
10387;SDS011;5240;51.128;4.566;2022-10-29T03:14:58;19.83;;;10.32;;
10387;SDS011;5240;51.128;4.566;2022-10-29T03:17:25;20.92;;;9.88;;
10387;SDS011;5240;51.128;4.566;2022-10-29T03:19:52;22.00;;;10.05;;
10387;SDS011;5240;51.128;4.566;2022-10-29T03:22:19;16.00;;;9.80;;
10387;SDS011;5240;51.128;4.566;2022-10-29T03:24:46;17.60;;;9.55;;
10387;SDS011;5240;51.128;4.566;2022-10-29T03:27:14;15.18;;;9.82;;
10387;SDS011;5240;51.128;4.566;2022-10-29T03:29:41;17.30;;;9.70;;
10387;SDS011;5240;51.128;4.566;2022-10-29T03:32:08;22.98;;;10.52;;
10387;SDS011;5240;51.128;4.566;2022-10-29T03:34:35;15.15;;;9.90;;
10387;SDS011;5240;51.128;4.566;2022-10-29T03:37:02;18.02;;;10.05;;
10387;SDS011;5240;51.128;4.566;2022-10-29T03:39:29;18.92;;;9.63;;
10387;SDS011;5240;51.128;4.566;2022-10-29T03:41:56;18.23;;;9.30;;
10387;SDS011;5240;51.128;4.566;2022-10-29T03:44:24;20.70;;;9.65;;
10387;SDS011;5240;51.128;4.566;2022-10-29T03:46:51;15.00;;;9.25;;
10387;SDS011;5240;51.128;4.566;2022-10-29T03:49:18;19.73;;;9.40;;
10387;SDS011;5240;51.128;4.566;2022-10-29T03:51:45;19.33;;;9.38;;
10387;SDS011;5240;51.128;4.566;2022-10-29T03:54:12;15.75;;;9.20;;
10387;SDS011;5240;51.128;4.566;2022-10-29T03:56:39;17.42;;;9.52;;
10387;SDS011;5240;51.128;4.566;2022-10-29T03:59:05;16.52;;;9.00;;
10387;SDS011;5240;51.128;4.566;2022-10-29T04:01:34;12.27;;;8.40;;
10387;SDS011;5240;51.128;4.566;2022-10-29T04:04:01;19.48;;;9.27;;
10387;SDS011;5240;51.128;4.566;2022-10-29T04:06:28;17.38;;;8.45;;
10387;SDS011;5240;51.128;4.566;2022-10-29T04:08:55;18.25;;;8.65;;
10387;SDS011;5240;51.128;4.566;2022-10-29T04:11:22;18.50;;;9.65;;
10387;SDS011;5240;51.128;4.566;2022-10-29T04:13:50;17.30;;;9.40;;
10387;SDS011;5240;51.128;4.566;2022-10-29T04:16:17;17.50;;;8.68;;
10387;SDS011;5240;51.128;4.566;2022-10-29T04:18:46;16.10;;;8.77;;
10387;SDS011;5240;51.128;4.566;2022-10-29T04:21:13;19.27;;;9.38;;
10387;SDS011;5240;51.128;4.566;2022-10-29T04:23:40;17.00;;;8.90;;
10387;SDS011;5240;51.128;4.566;2022-10-29T04:26:07;21.55;;;10.20;;
10387;SDS011;5240;51.128;4.566;2022-10-29T04:28:34;15.93;;;9.35;;
10387;SDS011;5240;51.128;4.566;2022-10-29T04:31:02;17.35;;;9.75;;
10387;SDS011;5240;51.128;4.566;2022-10-29T04:33:30;20.08;;;8.95;;
10387;SDS011;5240;51.128;4.566;2022-10-29T04:35:59;14.88;;;9.60;;
10387;SDS011;5240;51.128;4.566;2022-10-29T04:38:26;17.88;;;9.43;;
10387;SDS011;5240;51.128;4.566;2022-10-29T04:40:56;17.80;;;9.50;;
10387;SDS011;5240;51.128;4.566;2022-10-29T04:43:23;15.48;;;9.20;;
10387;SDS011;5240;51.128;4.566;2022-10-29T04:45:51;21.42;;;10.35;;
10387;SDS011;5240;51.128;4.566;2022-10-29T04:48:18;14.93;;;9.43;;
10387;SDS011;5240;51.128;4.566;2022-10-29T04:50:45;19.75;;;10.15;;
10387;SDS011;5240;51.128;4.566;2022-10-29T04:53:14;17.50;;;9.63;;
10387;SDS011;5240;51.128;4.566;2022-10-29T04:55:41;18.50;;;10.25;;
10387;SDS011;5240;51.128;4.566;2022-10-29T04:58:10;18.35;;;9.82;;
10387;SDS011;5240;51.128;4.566;2022-10-29T05:00:39;19.08;;;10.40;;
10387;SDS011;5240;51.128;4.566;2022-10-29T05:03:07;19.20;;;10.43;;
10387;SDS011;5240;51.128;4.566;2022-10-29T05:05:35;15.65;;;9.95;;
10387;SDS011;5240;51.128;4.566;2022-10-29T05:08:03;24.13;;;11.30;;
10387;SDS011;5240;51.128;4.566;2022-10-29T05:10:33;17.55;;;10.15;;
10387;SDS011;5240;51.128;4.566;2022-10-29T05:13:01;16.02;;;10.02;;
10387;SDS011;5240;51.128;4.566;2022-10-29T05:15:31;15.57;;;10.07;;
10387;SDS011;5240;51.128;4.566;2022-10-29T05:17:58;22.20;;;10.63;;
10387;SDS011;5240;51.128;4.566;2022-10-29T05:20:26;19.90;;;10.45;;
10387;SDS011;5240;51.128;4.566;2022-10-29T05:22:57;17.90;;;9.40;;
10387;SDS011;5240;51.128;4.566;2022-10-29T05:25:25;17.17;;;10.55;;
10387;SDS011;5240;51.128;4.566;2022-10-29T05:27:59;18.48;;;10.30;;
10387;SDS011;5240;51.128;4.566;2022-10-29T05:30:27;18.58;;;10.23;;
10387;SDS011;5240;51.128;4.566;2022-10-29T05:32:54;17.40;;;10.25;;
10387;SDS011;5240;51.128;4.566;2022-10-29T05:35:21;22.42;;;11.27;;
10387;SDS011;5240;51.128;4.566;2022-10-29T05:37:51;23.95;;;11.82;;
10387;SDS011;5240;51.128;4.566;2022-10-29T05:40:18;17.23;;;10.52;;
10387;SDS011;5240;51.128;4.566;2022-10-29T05:42:45;19.90;;;10.43;;
10387;SDS011;5240;51.128;4.566;2022-10-29T05:45:13;22.98;;;11.38;;
10387;SDS011;5240;51.128;4.566;2022-10-29T05:47:40;21.38;;;11.70;;
10387;SDS011;5240;51.128;4.566;2022-10-29T05:50:08;17.83;;;11.20;;
10387;SDS011;5240;51.128;4.566;2022-10-29T05:52:35;21.45;;;10.85;;
10387;SDS011;5240;51.128;4.566;2022-10-29T05:55:03;18.05;;;11.85;;
10387;SDS011;5240;51.128;4.566;2022-10-29T05:57:30;19.95;;;11.23;;
10387;SDS011;5240;51.128;4.566;2022-10-29T05:59:57;23.58;;;11.80;;
10387;SDS011;5240;51.128;4.566;2022-10-29T06:02:26;19.42;;;11.57;;
10387;SDS011;5240;51.128;4.566;2022-10-29T06:04:53;21.05;;;12.23;;
10387;SDS011;5240;51.128;4.566;2022-10-29T06:07:19;18.90;;;11.27;;
10387;SDS011;5240;51.128;4.566;2022-10-29T06:09:46;19.83;;;12.80;;
10387;SDS011;5240;51.128;4.566;2022-10-29T06:12:13;20.33;;;11.85;;
10387;SDS011;5240;51.128;4.566;2022-10-29T06:14:40;19.48;;;11.63;;
10387;SDS011;5240;51.128;4.566;2022-10-29T06:17:07;21.55;;;11.70;;
10387;SDS011;5240;51.128;4.566;2022-10-29T06:19:36;20.63;;;12.00;;
10387;SDS011;5240;51.128;4.566;2022-10-29T06:22:03;19.13;;;11.50;;
10387;SDS011;5240;51.128;4.566;2022-10-29T06:24:30;24.17;;;12.95;;
10387;SDS011;5240;51.128;4.566;2022-10-29T06:26:57;19.08;;;12.13;;
10387;SDS011;5240;51.128;4.566;2022-10-29T06:29:24;25.40;;;14.77;;
10387;SDS011;5240;51.128;4.566;2022-10-29T06:31:51;21.60;;;12.55;;
10387;SDS011;5240;51.128;4.566;2022-10-29T06:34:18;23.98;;;12.77;;
10387;SDS011;5240;51.128;4.566;2022-10-29T06:36:46;20.75;;;12.57;;
10387;SDS011;5240;51.128;4.566;2022-10-29T06:39:13;23.08;;;12.23;;
10387;SDS011;5240;51.128;4.566;2022-10-29T06:41:40;20.67;;;13.00;;
10387;SDS011;5240;51.128;4.566;2022-10-29T06:44:07;21.45;;;13.20;;
10387;SDS011;5240;51.128;4.566;2022-10-29T06:46:34;21.70;;;13.05;;
10387;SDS011;5240;51.128;4.566;2022-10-29T06:49:01;21.13;;;13.00;;
10387;SDS011;5240;51.128;4.566;2022-10-29T06:51:27;20.77;;;12.70;;
10387;SDS011;5240;51.128;4.566;2022-10-29T06:53:56;25.48;;;12.80;;
10387;SDS011;5240;51.128;4.566;2022-10-29T06:56:23;19.05;;;13.07;;
10387;SDS011;5240;51.128;4.566;2022-10-29T06:58:50;21.77;;;12.85;;
10387;SDS011;5240;51.128;4.566;2022-10-29T07:01:17;22.50;;;13.18;;
10387;SDS011;5240;51.128;4.566;2022-10-29T07:03:43;20.50;;;12.60;;
10387;SDS011;5240;51.128;4.566;2022-10-29T07:06:10;18.77;;;12.52;;
10387;SDS011;5240;51.128;4.566;2022-10-29T07:08:37;20.52;;;12.60;;
10387;SDS011;5240;51.128;4.566;2022-10-29T07:11:06;21.00;;;13.05;;
10387;SDS011;5240;51.128;4.566;2022-10-29T07:13:33;24.50;;;11.88;;
10387;SDS011;5240;51.128;4.566;2022-10-29T07:16:00;27.98;;;13.27;;
10387;SDS011;5240;51.128;4.566;2022-10-29T07:18:27;20.52;;;12.98;;
10387;SDS011;5240;51.128;4.566;2022-10-29T07:20:54;26.73;;;12.63;;
10387;SDS011;5240;51.128;4.566;2022-10-29T07:23:21;23.05;;;13.15;;
10387;SDS011;5240;51.128;4.566;2022-10-29T07:25:50;24.15;;;12.75;;
10387;SDS011;5240;51.128;4.566;2022-10-29T07:28:19;19.90;;;12.18;;
10387;SDS011;5240;51.128;4.566;2022-10-29T07:30:49;24.40;;;12.13;;
10387;SDS011;5240;51.128;4.566;2022-10-29T07:33:17;24.63;;;12.70;;
10387;SDS011;5240;51.128;4.566;2022-10-29T07:35:44;21.08;;;12.73;;
10387;SDS011;5240;51.128;4.566;2022-10-29T07:38:11;21.85;;;13.43;;
10387;SDS011;5240;51.128;4.566;2022-10-29T07:40:39;29.45;;;16.25;;
10387;SDS011;5240;51.128;4.566;2022-10-29T07:43:11;23.17;;;12.50;;
10387;SDS011;5240;51.128;4.566;2022-10-29T07:45:39;18.02;;;11.88;;
10387;SDS011;5240;51.128;4.566;2022-10-29T07:48:08;22.77;;;12.13;;
10387;SDS011;5240;51.128;4.566;2022-10-29T07:50:35;22.25;;;12.38;;
10387;SDS011;5240;51.128;4.566;2022-10-29T07:53:03;19.05;;;11.75;;
10387;SDS011;5240;51.128;4.566;2022-10-29T07:55:31;19.48;;;11.82;;
10387;SDS011;5240;51.128;4.566;2022-10-29T07:57:59;19.98;;;11.88;;
10387;SDS011;5240;51.128;4.566;2022-10-29T08:00:27;24.45;;;11.23;;
10387;SDS011;5240;51.128;4.566;2022-10-29T08:02:56;17.88;;;10.73;;
10387;SDS011;5240;51.128;4.566;2022-10-29T08:05:23;16.80;;;10.30;;
10387;SDS011;5240;51.128;4.566;2022-10-29T08:07:51;16.77;;;10.82;;
10387;SDS011;5240;51.128;4.566;2022-10-29T08:10:18;17.42;;;10.57;;
10387;SDS011;5240;51.128;4.566;2022-10-29T08:12:48;16.52;;;10.50;;
10387;SDS011;5240;51.128;4.566;2022-10-29T08:15:16;19.42;;;10.75;;
10387;SDS011;5240;51.128;4.566;2022-10-29T08:17:43;16.60;;;10.85;;
10387;SDS011;5240;51.128;4.566;2022-10-29T08:20:13;16.70;;;10.38;;
10387;SDS011;5240;51.128;4.566;2022-10-29T08:22:40;15.82;;;10.13;;
10387;SDS011;5240;51.128;4.566;2022-10-29T08:25:08;17.75;;;10.65;;
10387;SDS011;5240;51.128;4.566;2022-10-29T08:27:35;17.80;;;10.13;;
10387;SDS011;5240;51.128;4.566;2022-10-29T08:30:02;17.00;;;11.05;;
10387;SDS011;5240;51.128;4.566;2022-10-29T08:32:30;17.13;;;10.15;;
10387;SDS011;5240;51.128;4.566;2022-10-29T08:34:57;20.98;;;10.20;;
10387;SDS011;5240;51.128;4.566;2022-10-29T08:37:25;18.70;;;10.82;;
10387;SDS011;5240;51.128;4.566;2022-10-29T08:39:52;22.52;;;10.30;;
10387;SDS011;5240;51.128;4.566;2022-10-29T08:42:22;18.65;;;10.18;;
10387;SDS011;5240;51.128;4.566;2022-10-29T08:45:07;15.23;;;9.35;;
10387;SDS011;5240;51.128;4.566;2022-10-29T08:47:43;17.25;;;9.10;;
10387;SDS011;5240;51.128;4.566;2022-10-29T08:50:19;15.88;;;8.73;;
10387;SDS011;5240;51.128;4.566;2022-10-29T08:52:51;17.90;;;8.40;;
10387;SDS011;5240;51.128;4.566;2022-10-29T08:55:19;16.15;;;7.72;;
10387;SDS011;5240;51.128;4.566;2022-10-29T08:58:02;15.40;;;8.75;;
10387;SDS011;5240;51.128;4.566;2022-10-29T09:00:40;19.02;;;8.15;;
10387;SDS011;5240;51.128;4.566;2022-10-29T09:03:09;13.38;;;8.02;;
10387;SDS011;5240;51.128;4.566;2022-10-29T09:05:43;18.23;;;8.13;;
10387;SDS011;5240;51.128;4.566;2022-10-29T09:08:22;15.52;;;8.18;;
10387;SDS011;5240;51.128;4.566;2022-10-29T09:10:57;15.85;;;7.30;;
10387;SDS011;5240;51.128;4.566;2022-10-29T09:13:36;15.85;;;7.40;;
10387;SDS011;5240;51.128;4.566;2022-10-29T09:16:20;18.80;;;7.03;;
10387;SDS011;5240;51.128;4.566;2022-10-29T09:19:01;15.50;;;7.22;;
10387;SDS011;5240;51.128;4.566;2022-10-29T09:21:38;12.15;;;6.80;;
10387;SDS011;5240;51.128;4.566;2022-10-29T09:24:14;11.10;;;5.88;;
10387;SDS011;5240;51.128;4.566;2022-10-29T09:26:52;10.27;;;5.70;;
10387;SDS011;5240;51.128;4.566;2022-10-29T09:29:27;11.52;;;5.90;;
10387;SDS011;5240;51.128;4.566;2022-10-29T09:32:10;14.02;;;6.18;;
10387;SDS011;5240;51.128;4.566;2022-10-29T09:34:41;15.75;;;6.03;;
10387;SDS011;5240;51.128;4.566;2022-10-29T09:37:13;11.32;;;5.57;;
10387;SDS011;5240;51.128;4.566;2022-10-29T09:39:43;11.50;;;5.78;;
10387;SDS011;5240;51.128;4.566;2022-10-29T09:42:12;14.63;;;6.28;;
10387;SDS011;5240;51.128;4.566;2022-10-29T09:44:45;11.55;;;5.93;;
10387;SDS011;5240;51.128;4.566;2022-10-29T09:47:19;14.23;;;6.03;;
10387;SDS011;5240;51.128;4.566;2022-10-29T09:49:56;13.50;;;6.13;;
10387;SDS011;5240;51.128;4.566;2022-10-29T09:52:31;12.68;;;6.13;;
10387;SDS011;5240;51.128;4.566;2022-10-29T09:55:03;15.02;;;5.88;;
10387;SDS011;5240;51.128;4.566;2022-10-29T09:57:33;13.07;;;5.80;;
10387;SDS011;5240;51.128;4.566;2022-10-29T10:00:03;14.13;;;5.75;;
10387;SDS011;5240;51.128;4.566;2022-10-29T10:02:32;15.05;;;6.22;;
10387;SDS011;5240;51.128;4.566;2022-10-29T10:05:03;12.15;;;5.30;;
10387;SDS011;5240;51.128;4.566;2022-10-29T10:07:32;12.40;;;6.00;;
10387;SDS011;5240;51.128;4.566;2022-10-29T10:10:00;13.05;;;5.43;;
10387;SDS011;5240;51.128;4.566;2022-10-29T10:12:42;10.65;;;5.55;;
10387;SDS011;5240;51.128;4.566;2022-10-29T10:15:17;13.18;;;6.47;;
10387;SDS011;5240;51.128;4.566;2022-10-29T10:17:53;13.93;;;5.13;;
10387;SDS011;5240;51.128;4.566;2022-10-29T10:20:30;14.85;;;5.78;;
10387;SDS011;5240;51.128;4.566;2022-10-29T10:23:00;13.55;;;5.75;;
10387;SDS011;5240;51.128;4.566;2022-10-29T10:25:40;15.68;;;4.95;;
10387;SDS011;5240;51.128;4.566;2022-10-29T10:28:15;15.45;;;5.13;;
10387;SDS011;5240;51.128;4.566;2022-10-29T10:30:43;13.20;;;5.93;;
10387;SDS011;5240;51.128;4.566;2022-10-29T10:33:11;12.23;;;5.20;;
10387;SDS011;5240;51.128;4.566;2022-10-29T10:35:49;29.70;;;6.88;;
10387;SDS011;5240;51.128;4.566;2022-10-29T10:38:16;15.55;;;5.20;;
10387;SDS011;5240;51.128;4.566;2022-10-29T10:40:44;11.23;;;5.18;;
10387;SDS011;5240;51.128;4.566;2022-10-29T10:43:22;13.23;;;5.90;;
10387;SDS011;5240;51.128;4.566;2022-10-29T10:45:51;11.93;;;5.60;;
10387;SDS011;5240;51.128;4.566;2022-10-29T10:48:21;11.63;;;5.10;;
10387;SDS011;5240;51.128;4.566;2022-10-29T10:50:50;11.73;;;5.13;;
10387;SDS011;5240;51.128;4.566;2022-10-29T10:53:34;14.68;;;5.00;;
10387;SDS011;5240;51.128;4.566;2022-10-29T10:56:04;13.30;;;5.43;;
10387;SDS011;5240;51.128;4.566;2022-10-29T10:58:34;14.35;;;5.18;;
10387;SDS011;5240;51.128;4.566;2022-10-29T11:01:07;14.23;;;5.32;;
10387;SDS011;5240;51.128;4.566;2022-10-29T11:03:38;15.10;;;5.38;;
10387;SDS011;5240;51.128;4.566;2022-10-29T11:06:09;13.30;;;5.10;;
10387;SDS011;5240;51.128;4.566;2022-10-29T11:08:41;13.68;;;5.05;;
10387;SDS011;5240;51.128;4.566;2022-10-29T11:11:14;13.18;;;4.72;;
10387;SDS011;5240;51.128;4.566;2022-10-29T11:13:46;13.93;;;4.70;;
10387;SDS011;5240;51.128;4.566;2022-10-29T11:16:15;11.40;;;4.43;;
10387;SDS011;5240;51.128;4.566;2022-10-29T11:18:47;10.18;;;4.88;;
10387;SDS011;5240;51.128;4.566;2022-10-29T11:21:20;12.88;;;5.03;;
10387;SDS011;5240;51.128;4.566;2022-10-29T11:23:52;15.73;;;4.93;;
10387;SDS011;5240;51.128;4.566;2022-10-29T11:26:25;13.30;;;4.90;;
10387;SDS011;5240;51.128;4.566;2022-10-29T11:28:59;12.77;;;4.70;;
10387;SDS011;5240;51.128;4.566;2022-10-29T11:31:39;16.70;;;5.18;;
10387;SDS011;5240;51.128;4.566;2022-10-29T11:34:18;10.30;;;4.70;;
10387;SDS011;5240;51.128;4.566;2022-10-29T11:36:51;13.63;;;4.85;;
10387;SDS011;5240;51.128;4.566;2022-10-29T11:39:25;13.80;;;5.03;;
10387;SDS011;5240;51.128;4.566;2022-10-29T11:41:55;11.55;;;4.80;;
10387;SDS011;5240;51.128;4.566;2022-10-29T11:44:26;14.57;;;5.18;;
10387;SDS011;5240;51.128;4.566;2022-10-29T11:47:01;12.55;;;4.97;;
10387;SDS011;5240;51.128;4.566;2022-10-29T11:49:43;11.52;;;4.60;;
10387;SDS011;5240;51.128;4.566;2022-10-29T11:52:26;11.80;;;5.35;;
10387;SDS011;5240;51.128;4.566;2022-10-29T11:54:58;14.27;;;4.70;;
10387;SDS011;5240;51.128;4.566;2022-10-29T11:57:36;10.43;;;4.82;;
10387;SDS011;5240;51.128;4.566;2022-10-29T12:00:11;12.63;;;4.55;;
10387;SDS011;5240;51.128;4.566;2022-10-29T12:02:54;10.25;;;4.32;;
10387;SDS011;5240;51.128;4.566;2022-10-29T12:05:34;11.70;;;5.00;;
10387;SDS011;5240;51.128;4.566;2022-10-29T12:08:09;12.45;;;4.70;;
10387;SDS011;5240;51.128;4.566;2022-10-29T12:10:46;13.05;;;4.25;;
10387;SDS011;5240;51.128;4.566;2022-10-29T12:13:20;9.80;;;4.70;;
10387;SDS011;5240;51.128;4.566;2022-10-29T12:16:00;16.45;;;4.45;;
10387;SDS011;5240;51.128;4.566;2022-10-29T12:18:39;11.68;;;4.72;;
10387;SDS011;5240;51.128;4.566;2022-10-29T12:21:14;12.15;;;5.07;;
10387;SDS011;5240;51.128;4.566;2022-10-29T12:23:51;13.55;;;4.60;;
10387;SDS011;5240;51.128;4.566;2022-10-29T12:26:25;14.07;;;4.60;;
10387;SDS011;5240;51.128;4.566;2022-10-29T12:28:59;11.20;;;4.55;;
10387;SDS011;5240;51.128;4.566;2022-10-29T12:31:38;13.32;;;4.97;;
10387;SDS011;5240;51.128;4.566;2022-10-29T12:34:12;11.43;;;4.80;;
10387;SDS011;5240;51.128;4.566;2022-10-29T12:36:48;13.30;;;4.20;;
10387;SDS011;5240;51.128;4.566;2022-10-29T12:39:25;12.98;;;5.20;;
10387;SDS011;5240;51.128;4.566;2022-10-29T12:41:57;12.85;;;4.70;;
10387;SDS011;5240;51.128;4.566;2022-10-29T12:44:26;11.80;;;4.90;;
10387;SDS011;5240;51.128;4.566;2022-10-29T12:47:03;11.80;;;4.88;;
10387;SDS011;5240;51.128;4.566;2022-10-29T12:49:37;13.63;;;5.10;;
10387;SDS011;5240;51.128;4.566;2022-10-29T12:52:12;23.52;;;6.03;;
10387;SDS011;5240;51.128;4.566;2022-10-29T12:54:44;17.20;;;5.20;;
10387;SDS011;5240;51.128;4.566;2022-10-29T12:57:28;15.88;;;5.10;;
10387;SDS011;5240;51.128;4.566;2022-10-29T13:03:12;25.67;;;6.15;;
10387;SDS011;5240;51.128;4.566;2022-10-29T13:09:17;26.55;;;5.95;;
10387;SDS011;5240;51.128;4.566;2022-10-29T13:11:46;34.08;;;7.15;;
10387;SDS011;5240;51.128;4.566;2022-10-29T13:14:16;12.75;;;5.30;;
10387;SDS011;5240;51.128;4.566;2022-10-29T13:16:48;12.25;;;4.90;;
10387;SDS011;5240;51.128;4.566;2022-10-29T13:19:28;16.00;;;4.70;;
10387;SDS011;5240;51.128;4.566;2022-10-29T13:22:27;14.30;;;5.13;;
10387;SDS011;5240;51.128;4.566;2022-10-29T13:34:20;15.80;;;5.07;;
10387;SDS011;5240;51.128;4.566;2022-10-29T13:43:18;12.25;;;4.90;;
10387;SDS011;5240;51.128;4.566;2022-10-29T13:45:48;17.10;;;4.95;;
10387;SDS011;5240;51.128;4.566;2022-10-29T13:48:21;10.98;;;5.13;;
10387;SDS011;5240;51.128;4.566;2022-10-29T13:50:51;11.43;;;4.55;;
10387;SDS011;5240;51.128;4.566;2022-10-29T13:53:24;10.85;;;5.10;;
10387;SDS011;5240;51.128;4.566;2022-10-29T13:55:59;13.60;;;4.60;;
10387;SDS011;5240;51.128;4.566;2022-10-29T13:58:28;12.57;;;4.50;;
10387;SDS011;5240;51.128;4.566;2022-10-29T14:00:57;15.70;;;4.35;;
10387;SDS011;5240;51.128;4.566;2022-10-29T14:03:28;15.77;;;4.32;;
10387;SDS011;5240;51.128;4.566;2022-10-29T14:06:02;14.40;;;5.00;;
10387;SDS011;5240;51.128;4.566;2022-10-29T14:08:36;12.45;;;4.80;;
10387;SDS011;5240;51.128;4.566;2022-10-29T14:11:08;17.77;;;4.55;;
10387;SDS011;5240;51.128;4.566;2022-10-29T14:13:41;13.02;;;5.05;;
10387;SDS011;5240;51.128;4.566;2022-10-29T14:16:12;14.27;;;4.90;;
10387;SDS011;5240;51.128;4.566;2022-10-29T14:18:41;10.40;;;5.00;;
10387;SDS011;5240;51.128;4.566;2022-10-29T14:21:12;11.32;;;4.53;;
10387;SDS011;5240;51.128;4.566;2022-10-29T14:23:47;15.27;;;5.60;;
10387;SDS011;5240;51.128;4.566;2022-10-29T14:26:21;12.63;;;5.03;;
10387;SDS011;5240;51.128;4.566;2022-10-29T14:28:49;14.25;;;5.60;;
10387;SDS011;5240;51.128;4.566;2022-10-29T14:31:17;11.32;;;5.13;;
10387;SDS011;5240;51.128;4.566;2022-10-29T14:33:51;11.13;;;5.40;;
10387;SDS011;5240;51.128;4.566;2022-10-29T14:36:20;9.82;;;4.60;;
10387;SDS011;5240;51.128;4.566;2022-10-29T14:38:55;11.57;;;5.05;;
10387;SDS011;5240;51.128;4.566;2022-10-29T14:41:25;14.07;;;4.78;;
10387;SDS011;5240;51.128;4.566;2022-10-29T14:43:57;11.90;;;4.47;;
10387;SDS011;5240;51.128;4.566;2022-10-29T14:46:28;14.73;;;4.75;;
10387;SDS011;5240;51.128;4.566;2022-10-29T14:49:00;10.77;;;4.50;;
10387;SDS011;5240;51.128;4.566;2022-10-29T14:51:32;11.27;;;4.75;;
10387;SDS011;5240;51.128;4.566;2022-10-29T14:54:05;13.75;;;4.70;;
10387;SDS011;5240;51.128;4.566;2022-10-29T14:56:37;11.55;;;4.85;;
10387;SDS011;5240;51.128;4.566;2022-10-29T14:59:12;15.77;;;4.97;;
10387;SDS011;5240;51.128;4.566;2022-10-29T15:01:45;9.55;;;4.40;;
10387;SDS011;5240;51.128;4.566;2022-10-29T15:04:17;11.95;;;4.47;;
10387;SDS011;5240;51.128;4.566;2022-10-29T15:06:50;15.90;;;4.70;;
10387;SDS011;5240;51.128;4.566;2022-10-29T15:09:20;10.95;;;4.90;;
10387;SDS011;5240;51.128;4.566;2022-10-29T15:11:59;14.13;;;4.25;;
10387;SDS011;5240;51.128;4.566;2022-10-29T15:14:35;15.05;;;4.75;;
10387;SDS011;5240;51.128;4.566;2022-10-29T15:17:16;9.45;;;4.65;;
10387;SDS011;5240;51.128;4.566;2022-10-29T15:19:47;14.50;;;5.00;;
10387;SDS011;5240;51.128;4.566;2022-10-29T15:22:18;11.20;;;4.63;;
10387;SDS011;5240;51.128;4.566;2022-10-29T15:24:52;15.18;;;4.68;;
10387;SDS011;5240;51.128;4.566;2022-10-29T15:27:24;11.00;;;5.22;;
10387;SDS011;5240;51.128;4.566;2022-10-29T15:29:51;10.48;;;4.25;;